sensor_id;sensor_type;location;lat;lon;timestamp;pressure;altitude;pressure_sealevel;temperature;humidity
78313;BME280;67568;47.438;21.408;2023-05-10T00:02:15;100925.47;;;11.22;61.50
78313;BME280;67568;47.438;21.408;2023-05-10T00:04:41;100917.72;;;11.19;61.55
78313;BME280;67568;47.438;21.408;2023-05-10T00:07:08;100916.91;;;11.19;62.34
78313;BME280;67568;47.438;21.408;2023-05-10T00:09:35;100917.50;;;11.16;62.52
78313;BME280;67568;47.438;21.408;2023-05-10T00:12:02;100912.03;;;11.06;62.88
78313;BME280;67568;47.438;21.408;2023-05-10T00:14:29;100916.25;;;10.98;63.54
78313;BME280;67568;47.438;21.408;2023-05-10T00:16:55;100913.47;;;10.98;63.55
78313;BME280;67568;47.438;21.408;2023-05-10T00:19:22;100908.25;;;10.96;63.78
78313;BME280;67568;47.438;21.408;2023-05-10T00:21:49;100909.06;;;10.97;64.10
78313;BME280;67568;47.438;21.408;2023-05-10T00:24:16;100902.19;;;10.89;64.26
78313;BME280;67568;47.438;21.408;2023-05-10T00:26:45;100905.50;;;10.91;64.87
78313;BME280;67568;47.438;21.408;2023-05-10T00:29:11;100900.88;;;10.82;64.82
78313;BME280;67568;47.438;21.408;2023-05-10T00:31:38;100900.31;;;10.85;65.51
78313;BME280;67568;47.438;21.408;2023-05-10T00:34:05;100911.97;;;10.82;66.04
78313;BME280;67568;47.438;21.408;2023-05-10T00:36:32;100918.59;;;10.86;65.80
78313;BME280;67568;47.438;21.408;2023-05-10T00:38:58;100912.53;;;10.78;66.55
78313;BME280;67568;47.438;21.408;2023-05-10T00:41:25;100913.19;;;10.70;66.16
78313;BME280;67568;47.438;21.408;2023-05-10T00:43:52;100908.13;;;10.77;66.22
78313;BME280;67568;47.438;21.408;2023-05-10T00:46:19;100917.00;;;10.74;66.81
78313;BME280;67568;47.438;21.408;2023-05-10T00:48:46;100911.22;;;10.71;66.90
78313;BME280;67568;47.438;21.408;2023-05-10T00:51:13;100909.88;;;10.63;67.31
78313;BME280;67568;47.438;21.408;2023-05-10T00:53:40;100900.78;;;10.57;68.14
78313;BME280;67568;47.438;21.408;2023-05-10T00:56:07;100910.47;;;10.60;68.20
78313;BME280;67568;47.438;21.408;2023-05-10T00:58:35;100911.53;;;10.64;68.54
78313;BME280;67568;47.438;21.408;2023-05-10T01:01:05;100902.78;;;10.52;69.02
78313;BME280;67568;47.438;21.408;2023-05-10T01:03:32;100905.56;;;10.47;69.70
78313;BME280;67568;47.438;21.408;2023-05-10T01:06:00;100904.47;;;10.48;70.14
78313;BME280;67568;47.438;21.408;2023-05-10T01:08:27;100906.41;;;10.47;70.03
78313;BME280;67568;47.438;21.408;2023-05-10T01:10:55;100913.56;;;10.53;70.34
78313;BME280;67568;47.438;21.408;2023-05-10T01:13:32;100902.78;;;10.52;70.30
78313;BME280;67568;47.438;21.408;2023-05-10T01:16:02;100900.53;;;10.54;70.29
78313;BME280;67568;47.438;21.408;2023-05-10T01:18:30;100898.94;;;10.48;71.11
78313;BME280;67568;47.438;21.408;2023-05-10T01:21:17;100903.34;;;10.49;70.81
78313;BME280;67568;47.438;21.408;2023-05-10T01:27:02;100904.97;;;10.55;70.55
78313;BME280;67568;47.438;21.408;2023-05-10T01:32:57;100897.19;;;10.57;71.00
78313;BME280;67568;47.438;21.408;2023-05-10T01:35:51;100903.00;;;10.55;71.27
78313;BME280;67568;47.438;21.408;2023-05-10T01:38:32;100895.00;;;10.54;70.99
78313;BME280;67568;47.438;21.408;2023-05-10T01:43:52;100900.22;;;10.61;71.09
78313;BME280;67568;47.438;21.408;2023-05-10T01:46:39;100897.41;;;10.66;71.23
78313;BME280;67568;47.438;21.408;2023-05-10T01:49:22;100895.75;;;10.65;71.26
78313;BME280;67568;47.438;21.408;2023-05-10T01:51:52;100901.88;;;10.62;71.61
78313;BME280;67568;47.438;21.408;2023-05-10T01:54:21;100904.88;;;10.70;71.46
78313;BME280;67568;47.438;21.408;2023-05-10T01:57:06;100890.16;;;10.70;70.79
78313;BME280;67568;47.438;21.408;2023-05-10T01:59:37;100898.66;;;10.78;71.45
78313;BME280;67568;47.438;21.408;2023-05-10T02:02:06;100898.41;;;10.80;70.75
78313;BME280;67568;47.438;21.408;2023-05-10T02:04:41;100896.41;;;10.86;71.29
78313;BME280;67568;47.438;21.408;2023-05-10T02:07:09;100902.81;;;10.81;71.46
78313;BME280;67568;47.438;21.408;2023-05-10T02:09:37;100887.88;;;10.77;71.34
78313;BME280;67568;47.438;21.408;2023-05-10T02:12:05;100900.59;;;10.83;71.28
78313;BME280;67568;47.438;21.408;2023-05-10T02:14:35;100900.31;;;10.85;71.75
78313;BME280;67568;47.438;21.408;2023-05-10T02:17:05;100892.00;;;10.85;72.04
78313;BME280;67568;47.438;21.408;2023-05-10T02:19:38;100891.91;;;10.90;71.70
78313;BME280;67568;47.438;21.408;2023-05-10T02:22:07;100889.22;;;10.85;71.11
78313;BME280;67568;47.438;21.408;2023-05-10T02:24:36;100889.47;;;10.88;71.31
78313;BME280;67568;47.438;21.408;2023-05-10T02:27:04;100885.31;;;10.86;72.04
78313;BME280;67568;47.438;21.408;2023-05-10T02:29:32;100889.22;;;10.85;72.26
78313;BME280;67568;47.438;21.408;2023-05-10T02:32:00;100887.06;;;10.76;72.39
78313;BME280;67568;47.438;21.408;2023-05-10T02:34:31;100870.47;;;10.71;72.43
78313;BME280;67568;47.438;21.408;2023-05-10T02:36:59;100888.16;;;10.75;72.79
78313;BME280;67568;47.438;21.408;2023-05-10T02:39:27;100883.53;;;10.66;72.71
78313;BME280;67568;47.438;21.408;2023-05-10T02:41:56;100885.81;;;10.58;73.38
78313;BME280;67568;47.438;21.408;2023-05-10T02:44:26;100890.53;;;10.58;73.59
78313;BME280;67568;47.438;21.408;2023-05-10T02:46:54;100884.78;;;10.49;73.73
78313;BME280;67568;47.438;21.408;2023-05-10T02:49:21;100880.63;;;10.47;73.33
78313;BME280;67568;47.438;21.408;2023-05-10T02:51:54;100885.59;;;10.50;73.04
78313;BME280;67568;47.438;21.408;2023-05-10T02:54:27;100883.41;;;10.47;73.66
78313;BME280;67568;47.438;21.408;2023-05-10T02:57:03;100879.66;;;10.27;73.92
78313;BME280;67568;47.438;21.408;2023-05-10T02:59:31;100883.53;;;10.31;73.91
78313;BME280;67568;47.438;21.408;2023-05-10T03:02:01;100883.63;;;10.11;75.16
78313;BME280;67568;47.438;21.408;2023-05-10T03:04:28;100887.44;;;10.20;74.27
78313;BME280;67568;47.438;21.408;2023-05-10T03:06:55;100893.53;;;10.22;74.25
78313;BME280;67568;47.438;21.408;2023-05-10T03:09:22;100894.38;;;10.18;74.92
78313;BME280;67568;47.438;21.408;2023-05-10T03:11:56;100892.19;;;10.14;74.76
78313;BME280;67568;47.438;21.408;2023-05-10T03:20:06;100874.44;;;10.16;74.11
78313;BME280;67568;47.438;21.408;2023-05-10T03:22:53;100874.16;;;10.17;73.79
78313;BME280;67568;47.438;21.408;2023-05-10T03:25:24;100884.44;;;10.17;73.67
78313;BME280;67568;47.438;21.408;2023-05-10T03:28:14;100880.28;;;10.14;73.88
78313;BME280;67568;47.438;21.408;2023-05-10T03:30:58;100874.16;;;10.17;73.67
78313;BME280;67568;47.438;21.408;2023-05-10T03:33:28;100871.94;;;10.19;73.10
78313;BME280;67568;47.438;21.408;2023-05-10T03:35:55;100881.88;;;10.25;73.39
78313;BME280;67568;47.438;21.408;2023-05-10T03:38:22;100894.06;;;10.24;73.53
78313;BME280;67568;47.438;21.408;2023-05-10T03:40:48;100884.91;;;10.24;73.44
78313;BME280;67568;47.438;21.408;2023-05-10T03:43:15;100890.19;;;10.30;73.38
78313;BME280;67568;47.438;21.408;2023-05-10T03:45:42;100882.44;;;10.27;73.24
78313;BME280;67568;47.438;21.408;2023-05-10T03:48:08;100892.09;;;10.30;73.82
78313;BME280;67568;47.438;21.408;2023-05-10T03:50:35;100897.38;;;10.26;73.95
78313;BME280;67568;47.438;21.408;2023-05-10T03:53:02;100885.75;;;10.29;73.50
78313;BME280;67568;47.438;21.408;2023-05-10T03:55:28;100892.38;;;10.33;73.39
78313;BME280;67568;47.438;21.408;2023-05-10T03:57:58;100880.75;;;10.31;73.39
78313;BME280;67568;47.438;21.408;2023-05-10T04:00:24;100890.72;;;10.32;73.71
78313;BME280;67568;47.438;21.408;2023-05-10T04:02:52;100887.91;;;10.38;73.12
78313;BME280;67568;47.438;21.408;2023-05-10T04:05:19;100900.94;;;10.37;72.60
78313;BME280;67568;47.438;21.408;2023-05-10T04:07:46;100883.75;;;10.40;72.65
78313;BME280;67568;47.438;21.408;2023-05-10T04:10:13;100887.06;;;10.42;72.33
78313;BME280;67568;47.438;21.408;2023-05-10T04:12:43;100894.25;;;10.43;72.43
78313;BME280;67568;47.438;21.408;2023-05-10T04:15:10;100886.25;;;10.42;72.59
78313;BME280;67568;47.438;21.408;2023-05-10T04:17:37;100896.44;;;10.46;72.04
78313;BME280;67568;47.438;21.408;2023-05-10T04:20:04;100895.63;;;10.41;73.29
78313;BME280;67568;47.438;21.408;2023-05-10T04:22:32;100891.91;;;10.16;73.64
78313;BME280;67568;47.438;21.408;2023-05-10T04:24:59;100887.47;;;10.15;73.83
78313;BME280;67568;47.438;21.408;2023-05-10T04:27:26;100883.63;;;10.11;73.23
78313;BME280;67568;47.438;21.408;2023-05-10T04:29:53;100898.53;;;10.15;73.53
78313;BME280;67568;47.438;21.408;2023-05-10T04:32:20;100887.19;;;10.17;72.83
78313;BME280;67568;47.438;21.408;2023-05-10T04:34:47;100885.72;;;10.34;72.42
78313;BME280;67568;47.438;21.408;2023-05-10T04:37:14;100891.09;;;10.55;72.57
78313;BME280;67568;47.438;21.408;2023-05-10T04:39:41;100878.97;;;10.51;72.75
78313;BME280;67568;47.438;21.408;2023-05-10T04:42:10;100896.00;;;10.68;72.75
78313;BME280;67568;47.438;21.408;2023-05-10T04:44:36;100890.28;;;10.89;71.72
78313;BME280;67568;47.438;21.408;2023-05-10T04:47:03;100894.44;;;11.15;70.77
78313;BME280;67568;47.438;21.408;2023-05-10T04:49:30;100905.06;;;11.08;70.44
78313;BME280;67568;47.438;21.408;2023-05-10T04:51:57;100894.75;;;11.14;70.41
78313;BME280;67568;47.438;21.408;2023-05-10T04:54:24;100897.78;;;11.17;70.37
78313;BME280;67568;47.438;21.408;2023-05-10T04:56:54;100903.50;;;11.26;70.30
78313;BME280;67568;47.438;21.408;2023-05-10T04:59:20;100898.63;;;11.42;69.89
78313;BME280;67568;47.438;21.408;2023-05-10T05:01:47;100898.09;;;11.40;70.22
78313;BME280;67568;47.438;21.408;2023-05-10T05:04:14;100905.81;;;11.43;70.44
78313;BME280;67568;47.438;21.408;2023-05-10T05:06:40;100898.13;;;11.35;70.88
78313;BME280;67568;47.438;21.408;2023-05-10T05:09:07;100907.47;;;11.44;70.33
78313;BME280;67568;47.438;21.408;2023-05-10T05:11:34;100903.22;;;11.52;70.87
78313;BME280;67568;47.438;21.408;2023-05-10T05:14:01;100899.00;;;11.59;70.93
78313;BME280;67568;47.438;21.408;2023-05-10T05:16:30;100893.84;;;11.71;69.22
78313;BME280;67568;47.438;21.408;2023-05-10T05:18:57;100906.34;;;12.36;67.77
78313;BME280;67568;47.438;21.408;2023-05-10T05:21:23;100901.13;;;12.67;67.17
78313;BME280;67568;47.438;21.408;2023-05-10T05:23:50;100898.47;;;13.09;66.57
78313;BME280;67568;47.438;21.408;2023-05-10T05:26:17;100908.38;;;13.47;65.32
78313;BME280;67568;47.438;21.408;2023-05-10T05:28:44;100903.63;;;13.89;64.13
78313;BME280;67568;47.438;21.408;2023-05-10T05:31:10;100904.91;;;14.20;64.55
78313;BME280;67568;47.438;21.408;2023-05-10T05:33:40;100908.78;;;14.46;61.77
78313;BME280;67568;47.438;21.408;2023-05-10T05:36:07;100905.78;;;14.43;60.84
78313;BME280;67568;47.438;21.408;2023-05-10T05:38:33;100901.47;;;14.36;60.65
78313;BME280;67568;47.438;21.408;2023-05-10T05:41:03;100910.41;;;14.11;62.76
78313;BME280;67568;47.438;21.408;2023-05-10T05:43:30;100904.31;;;14.45;61.96
78313;BME280;67568;47.438;21.408;2023-05-10T05:45:59;100909.25;;;14.62;60.61
78313;BME280;67568;47.438;21.408;2023-05-10T05:48:26;100896.72;;;14.73;58.67
78313;BME280;67568;47.438;21.408;2023-05-10T05:50:56;100905.94;;;15.05;59.28
78313;BME280;67568;47.438;21.408;2023-05-10T05:53:24;100909.72;;;15.32;58.65
78313;BME280;67568;47.438;21.408;2023-05-10T05:55:55;100904.94;;;15.23;57.04
78313;BME280;67568;47.438;21.408;2023-05-10T05:58:22;100907.22;;;15.61;57.44
78313;BME280;67568;47.438;21.408;2023-05-10T06:00:49;100912.75;;;15.75;55.85
78313;BME280;67568;47.438;21.408;2023-05-10T06:03:16;100906.03;;;15.85;55.46
78313;BME280;67568;47.438;21.408;2023-05-10T06:05:43;100905.19;;;15.84;54.99
78313;BME280;67568;47.438;21.408;2023-05-10T06:08:10;100913.84;;;15.65;54.88
78313;BME280;67568;47.438;21.408;2023-05-10T06:10:37;100908.25;;;15.65;54.95
78313;BME280;67568;47.438;21.408;2023-05-10T06:13:04;100906.25;;;15.57;54.93
78313;BME280;67568;47.438;21.408;2023-05-10T06:15:31;100915.44;;;15.98;54.52
78313;BME280;67568;47.438;21.408;2023-05-10T06:17:58;100906.66;;;15.73;53.33
78313;BME280;67568;47.438;21.408;2023-05-10T06:20:25;100912.25;;;15.82;53.64
78313;BME280;67568;47.438;21.408;2023-05-10T06:22:52;100913.47;;;16.07;53.52
78313;BME280;67568;47.438;21.408;2023-05-10T06:25:19;100908.59;;;16.30;53.94
78313;BME280;67568;47.438;21.408;2023-05-10T06:27:45;100906.28;;;16.23;53.78
78313;BME280;67568;47.438;21.408;2023-05-10T06:30:18;100909.53;;;16.16;52.19
78313;BME280;67568;47.438;21.408;2023-05-10T06:32:47;100916.16;;;16.21;53.08
78313;BME280;67568;47.438;21.408;2023-05-10T06:35:14;100921.91;;;16.33;52.07
78313;BME280;67568;47.438;21.408;2023-05-10T06:37:41;100917.84;;;16.91;51.56
78313;BME280;67568;47.438;21.408;2023-05-10T06:40:17;100914.72;;;16.84;50.65
78313;BME280;67568;47.438;21.408;2023-05-10T06:42:48;100919.47;;;17.01;50.28
78313;BME280;67568;47.438;21.408;2023-05-10T06:45:16;100916.78;;;17.30;51.29
78313;BME280;67568;47.438;21.408;2023-05-10T06:47:43;100917.34;;;16.89;51.75
78313;BME280;67568;47.438;21.408;2023-05-10T06:50:10;100923.75;;;16.72;51.36
78313;BME280;67568;47.438;21.408;2023-05-10T06:52:38;100921.78;;;16.64;51.08
78313;BME280;67568;47.438;21.408;2023-05-10T06:55:08;100924.41;;;16.34;52.35
78313;BME280;67568;47.438;21.408;2023-05-10T06:57:34;100924.38;;;16.17;53.10
78313;BME280;67568;47.438;21.408;2023-05-10T07:00:03;100933.63;;;15.78;54.58
78313;BME280;67568;47.438;21.408;2023-05-10T07:02:30;100929.56;;;15.92;53.38
78313;BME280;67568;47.438;21.408;2023-05-10T07:04:57;100925.91;;;15.74;54.21
78313;BME280;67568;47.438;21.408;2023-05-10T07:07:28;100925.47;;;15.59;55.04
78313;BME280;67568;47.438;21.408;2023-05-10T07:09:54;100926.97;;;15.65;54.00
78313;BME280;67568;47.438;21.408;2023-05-10T07:12:21;100923.00;;;15.26;55.90
78313;BME280;67568;47.438;21.408;2023-05-10T07:14:50;100910.25;;;15.42;56.58
78313;BME280;67568;47.438;21.408;2023-05-10T07:17:17;100924.25;;;15.51;54.34
78313;BME280;67568;47.438;21.408;2023-05-10T07:19:47;100918.66;;;15.82;54.48
78313;BME280;67568;47.438;21.408;2023-05-10T07:22:17;100914.88;;;15.78;55.23
78313;BME280;67568;47.438;21.408;2023-05-10T07:24:48;100926.16;;;16.22;54.91
78313;BME280;67568;47.438;21.408;2023-05-10T07:27:14;100924.91;;;16.36;54.74
78313;BME280;67568;47.438;21.408;2023-05-10T07:29:41;100917.19;;;16.68;53.15
78313;BME280;67568;47.438;21.408;2023-05-10T07:32:08;100924.78;;;16.94;51.44
78313;BME280;67568;47.438;21.408;2023-05-10T07:34:35;100927.97;;;17.39;51.68
78313;BME280;67568;47.438;21.408;2023-05-10T07:37:01;100922.47;;;17.51;50.59
78313;BME280;67568;47.438;21.408;2023-05-10T07:39:28;100920.91;;;17.80;50.25
78313;BME280;67568;47.438;21.408;2023-05-10T07:41:55;100930.91;;;17.90;48.69
78313;BME280;67568;47.438;21.408;2023-05-10T07:44:22;100922.56;;;17.72;48.78
78313;BME280;67568;47.438;21.408;2023-05-10T07:46:49;100926.22;;;17.64;50.01
78313;BME280;67568;47.438;21.408;2023-05-10T07:49:16;100917.56;;;17.87;49.12
78313;BME280;67568;47.438;21.408;2023-05-10T07:51:42;100925.13;;;17.48;48.61
78313;BME280;67568;47.438;21.408;2023-05-10T07:54:09;100911.41;;;16.64;49.84
78313;BME280;67568;47.438;21.408;2023-05-10T07:56:36;100919.97;;;16.59;48.96
78313;BME280;67568;47.438;21.408;2023-05-10T07:59:03;100911.41;;;16.82;48.53
78313;BME280;67568;47.438;21.408;2023-05-10T08:01:31;100919.97;;;17.12;47.91
78313;BME280;67568;47.438;21.408;2023-05-10T08:03:58;100919.94;;;17.20;46.87
78313;BME280;67568;47.438;21.408;2023-05-10T08:06:25;100919.97;;;17.59;47.27
78313;BME280;67568;47.438;21.408;2023-05-10T08:08:52;100917.56;;;17.48;45.82
78313;BME280;67568;47.438;21.408;2023-05-10T08:11:20;100923.97;;;17.96;46.17
78313;BME280;67568;47.438;21.408;2023-05-10T08:13:48;100923.13;;;18.25;45.54
78313;BME280;67568;47.438;21.408;2023-05-10T08:16:15;100915.88;;;18.45;45.16
78313;BME280;67568;47.438;21.408;2023-05-10T08:18:43;100915.53;;;18.26;44.88
78313;BME280;67568;47.438;21.408;2023-05-10T08:21:10;100911.72;;;18.30;44.33
78313;BME280;67568;47.438;21.408;2023-05-10T08:23:37;100917.09;;;18.14;44.48
78313;BME280;67568;47.438;21.408;2023-05-10T08:26:04;100919.50;;;17.95;43.95
78313;BME280;67568;47.438;21.408;2023-05-10T08:28:31;100909.25;;;18.50;42.15
78313;BME280;67568;47.438;21.408;2023-05-10T08:30:57;100921.88;;;19.19;41.39
78313;BME280;67568;47.438;21.408;2023-05-10T08:33:24;100904.59;;;19.41;40.17
78313;BME280;67568;47.438;21.408;2023-05-10T08:35:51;100916.38;;;19.68;39.65
78313;BME280;67568;47.438;21.408;2023-05-10T08:38:18;100918.66;;;19.53;40.90
78313;BME280;67568;47.438;21.408;2023-05-10T08:40:45;100925.13;;;19.66;39.02
78313;BME280;67568;47.438;21.408;2023-05-10T08:43:12;100919.84;;;19.65;39.63
78313;BME280;67568;47.438;21.408;2023-05-10T08:45:41;100911.88;;;19.09;40.66
78313;BME280;67568;47.438;21.408;2023-05-10T08:48:10;100912.66;;;18.34;41.93
78313;BME280;67568;47.438;21.408;2023-05-10T08:50:38;100919.94;;;18.06;42.84
78313;BME280;67568;47.438;21.408;2023-05-10T08:53:15;100907.34;;;18.41;42.74
78313;BME280;67568;47.438;21.408;2023-05-10T08:55:42;100904.25;;;18.13;44.04
78313;BME280;67568;47.438;21.408;2023-05-10T08:58:09;100905.78;;;17.64;46.07
78313;BME280;67568;47.438;21.408;2023-05-10T09:00:36;100910.59;;;17.93;46.76
78313;BME280;67568;47.438;21.408;2023-05-10T09:03:04;100911.22;;;17.98;46.05
78313;BME280;67568;47.438;21.408;2023-05-10T09:05:31;100898.19;;;18.03;45.23
78313;BME280;67568;47.438;21.408;2023-05-10T09:07:58;100909.09;;;17.95;47.35
78313;BME280;67568;47.438;21.408;2023-05-10T09:10:25;100902.78;;;17.69;46.50
78313;BME280;67568;47.438;21.408;2023-05-10T09:12:53;100905.00;;;17.54;45.61
78313;BME280;67568;47.438;21.408;2023-05-10T09:15:24;100900.69;;;17.57;44.83
78313;BME280;67568;47.438;21.408;2023-05-10T09:17:51;100913.13;;;17.86;45.88
78313;BME280;67568;47.438;21.408;2023-05-10T09:20:18;100905.94;;;17.59;44.40
78313;BME280;67568;47.438;21.408;2023-05-10T09:22:47;100910.66;;;17.37;45.82
78313;BME280;67568;47.438;21.408;2023-05-10T09:25:15;100903.03;;;17.46;46.49
78313;BME280;67568;47.438;21.408;2023-05-10T09:27:47;100903.38;;;17.53;46.51
78313;BME280;67568;47.438;21.408;2023-05-10T09:30:23;100903.50;;;18.25;44.97
78313;BME280;67568;47.438;21.408;2023-05-10T09:32:51;100902.09;;;17.81;44.75
78313;BME280;67568;47.438;21.408;2023-05-10T09:35:19;100894.75;;;17.97;44.97
78313;BME280;67568;47.438;21.408;2023-05-10T09:37:51;100895.34;;;17.82;44.64
78313;BME280;67568;47.438;21.408;2023-05-10T09:42:58;100886.75;;;18.79;44.38
78313;BME280;67568;47.438;21.408;2023-05-10T09:45:30;100880.91;;;18.84;43.61
78313;BME280;67568;47.438;21.408;2023-05-10T09:47:58;100883.13;;;18.79;42.53
78313;BME280;67568;47.438;21.408;2023-05-10T09:50:26;100869.28;;;19.07;42.17
78313;BME280;67568;47.438;21.408;2023-05-10T09:53:00;100872.03;;;18.95;42.49
78313;BME280;67568;47.438;21.408;2023-05-10T09:55:44;100870.53;;;18.97;41.41
78313;BME280;67568;47.438;21.408;2023-05-10T09:58:14;100863.66;;;19.07;41.44
78313;BME280;67568;47.438;21.408;2023-05-10T10:00:45;100861.53;;;19.04;42.87
78313;BME280;67568;47.438;21.408;2023-05-10T10:03:19;100852.28;;;19.03;39.92
78313;BME280;67568;47.438;21.408;2023-05-10T10:05:47;100856.56;;;19.22;40.30
78313;BME280;67568;47.438;21.408;2023-05-10T10:08:15;100853.75;;;19.22;38.70
78313;BME280;67568;47.438;21.408;2023-05-10T10:10:42;100847.44;;;19.25;38.56
78313;BME280;67568;47.438;21.408;2023-05-10T10:13:09;100854.50;;;18.98;38.15
78313;BME280;67568;47.438;21.408;2023-05-10T10:15:36;100851.69;;;18.98;38.57
78313;BME280;67568;47.438;21.408;2023-05-10T10:18:05;100851.22;;;18.96;36.96
78313;BME280;67568;47.438;21.408;2023-05-10T10:20:32;100852.53;;;18.98;37.67
78313;BME280;67568;47.438;21.408;2023-05-10T10:23:00;100848.31;;;19.04;38.16
78313;BME280;67568;47.438;21.408;2023-05-10T10:25:26;100849.66;;;18.86;37.87
78313;BME280;67568;47.438;21.408;2023-05-10T10:33:18;100828.28;;;18.18;39.41
78313;BME280;67568;47.438;21.408;2023-05-10T10:35:55;100837.13;;;18.29;39.86
78313;BME280;67568;47.438;21.408;2023-05-10T10:38:24;100830.25;;;18.60;38.52
78313;BME280;67568;47.438;21.408;2023-05-10T10:41:28;100828.00;;;18.74;36.49
78313;BME280;67568;47.438;21.408;2023-05-10T10:44:36;100825.97;;;18.96;37.21
78313;BME280;67568;47.438;21.408;2023-05-10T10:47:22;100825.91;;;18.83;38.36
78313;BME280;67568;47.438;21.408;2023-05-10T10:50:08;100825.31;;;18.78;37.71
78313;BME280;67568;47.438;21.408;2023-05-10T10:52:39;100816.38;;;19.09;36.50
78313;BME280;67568;47.438;21.408;2023-05-10T10:55:24;100808.78;;;19.46;37.64
78313;BME280;67568;47.438;21.408;2023-05-10T11:00:24;100806.44;;;19.61;34.52
78313;BME280;67568;47.438;21.408;2023-05-10T11:02:58;100793.69;;;19.51;35.34
78313;BME280;67568;47.438;21.408;2023-05-10T11:08:08;100789.69;;;19.89;34.27
78313;BME280;67568;47.438;21.408;2023-05-10T11:10:35;100801.31;;;19.75;34.70
78313;BME280;67568;47.438;21.408;2023-05-10T11:13:06;100790.63;;;19.81;33.12
78313;BME280;67568;47.438;21.408;2023-05-10T11:15:40;100800.03;;;19.72;34.20
78313;BME280;67568;47.438;21.408;2023-05-10T11:18:20;100793.06;;;20.07;32.57
78313;BME280;67568;47.438;21.408;2023-05-10T11:21:00;100791.22;;;19.62;32.52
78313;BME280;67568;47.438;21.408;2023-05-10T11:26:10;100783.97;;;19.48;33.91
78313;BME280;67568;47.438;21.408;2023-05-10T11:28:44;100790.81;;;18.90;34.44
78313;BME280;67568;47.438;21.408;2023-05-10T11:31:18;100790.38;;;19.00;35.27
78313;BME280;67568;47.438;21.408;2023-05-10T11:33:47;100779.19;;;19.24;34.22
78313;BME280;67568;47.438;21.408;2023-05-10T11:38:52;100782.44;;;19.26;34.72
78313;BME280;67568;47.438;21.408;2023-05-10T11:41:20;100782.88;;;18.92;34.49
78313;BME280;67568;47.438;21.408;2023-05-10T11:43:49;100782.88;;;18.92;35.39
78313;BME280;67568;47.438;21.408;2023-05-10T11:46:19;100781.03;;;18.96;35.35
78313;BME280;67568;47.438;21.408;2023-05-10T11:48:48;100773.91;;;18.65;34.42
78313;BME280;67568;47.438;21.408;2023-05-10T11:51:20;100772.94;;;18.61;34.57
78313;BME280;67568;47.438;21.408;2023-05-10T11:53:49;100772.56;;;18.83;34.78
78313;BME280;67568;47.438;21.408;2023-05-10T11:56:16;100774.38;;;19.25;33.95
78313;BME280;67568;47.438;21.408;2023-05-10T11:58:43;100775.75;;;19.43;35.84
78313;BME280;67568;47.438;21.408;2023-05-10T12:01:10;100771.69;;;19.65;33.90
78313;BME280;67568;47.438;21.408;2023-05-10T12:03:37;100772.13;;;19.80;33.49
78313;BME280;67568;47.438;21.408;2023-05-10T12:06:05;100761.69;;;19.80;33.10
78313;BME280;67568;47.438;21.408;2023-05-10T12:08:33;100768.63;;;19.58;33.21
78313;BME280;67568;47.438;21.408;2023-05-10T12:11:08;100763.50;;;19.36;34.44
78313;BME280;67568;47.438;21.408;2023-05-10T12:13:38;100758.34;;;19.50;32.99
78313;BME280;67568;47.438;21.408;2023-05-10T12:16:22;100760.44;;;19.41;32.09
78313;BME280;67568;47.438;21.408;2023-05-10T12:18:54;100764.41;;;19.64;34.04
78313;BME280;67568;47.438;21.408;2023-05-10T12:21:22;100755.28;;;19.43;33.88
78313;BME280;67568;47.438;21.408;2023-05-10T12:23:54;100753.53;;;19.01;34.14
78313;BME280;67568;47.438;21.408;2023-05-10T12:26:24;100760.78;;;18.57;34.70
78313;BME280;67568;47.438;21.408;2023-05-10T12:28:53;100756.16;;;18.40;34.98
78313;BME280;67568;47.438;21.408;2023-05-10T12:31:19;100756.28;;;18.43;35.27
78313;BME280;67568;47.438;21.408;2023-05-10T12:33:46;100743.84;;;18.32;36.34
78313;BME280;67568;47.438;21.408;2023-05-10T12:36:14;100758.31;;;18.22;35.65
78313;BME280;67568;47.438;21.408;2023-05-10T12:38:43;100751.13;;;18.33;36.26
78313;BME280;67568;47.438;21.408;2023-05-10T12:41:11;100756.19;;;18.19;36.38
78313;BME280;67568;47.438;21.408;2023-05-10T12:43:39;100745.22;;;18.26;37.14
78313;BME280;67568;47.438;21.408;2023-05-10T12:48:37;100750.31;;;18.78;35.00
78313;BME280;67568;47.438;21.408;2023-05-10T12:51:05;100748.25;;;19.00;35.05
78313;BME280;67568;47.438;21.408;2023-05-10T12:53:32;100735.63;;;19.30;33.61
78313;BME280;67568;47.438;21.408;2023-05-10T12:55:58;100741.72;;;19.32;34.46
78313;BME280;67568;47.438;21.408;2023-05-10T12:58:25;100739.00;;;19.24;34.46
78313;BME280;67568;47.438;21.408;2023-05-10T13:01:01;100729.78;;;19.11;33.75
78313;BME280;67568;47.438;21.408;2023-05-10T13:03:29;100723.34;;;18.98;33.78
78313;BME280;67568;47.438;21.408;2023-05-10T13:05:55;100732.22;;;18.88;35.25
78313;BME280;67568;47.438;21.408;2023-05-10T13:08:22;100719.16;;;18.71;34.03
78313;BME280;67568;47.438;21.408;2023-05-10T13:10:49;100711.44;;;18.56;34.80
78313;BME280;67568;47.438;21.408;2023-05-10T13:13:15;100713.97;;;18.49;34.18
78313;BME280;67568;47.438;21.408;2023-05-10T13:15:42;100708.63;;;18.56;34.56
78313;BME280;67568;47.438;21.408;2023-05-10T13:18:09;100712.16;;;18.65;35.97
78313;BME280;67568;47.438;21.408;2023-05-10T13:20:36;100709.53;;;18.48;34.68
78313;BME280;67568;47.438;21.408;2023-05-10T13:23:02;100708.25;;;18.45;34.38
78313;BME280;67568;47.438;21.408;2023-05-10T13:25:29;100708.94;;;18.42;35.23
78313;BME280;67568;47.438;21.408;2023-05-10T13:27:56;100710.22;;;18.45;35.89